sensor_id;sensor_type;location;lat;lon;timestamp;P1;durP1;ratioP1;P2;durP2;ratioP2
15218;SDS011;15623;53.986;11.676;2023-05-07T00:04:21;20.07;;;13.53;;
15218;SDS011;15623;53.986;11.676;2023-05-07T00:06:53;19.87;;;13.03;;
15218;SDS011;15623;53.986;11.676;2023-05-07T00:09:21;20.57;;;13.30;;
15218;SDS011;15623;53.986;11.676;2023-05-07T00:11:48;14.83;;;12.20;;
15218;SDS011;15623;53.986;11.676;2023-05-07T00:14:16;21.20;;;13.20;;
15218;SDS011;15623;53.986;11.676;2023-05-07T00:16:43;17.83;;;13.40;;
15218;SDS011;15623;53.986;11.676;2023-05-07T00:19:11;18.37;;;13.00;;
15218;SDS011;15623;53.986;11.676;2023-05-07T00:21:41;23.97;;;14.70;;
15218;SDS011;15623;53.986;11.676;2023-05-07T00:24:09;14.47;;;12.73;;
15218;SDS011;15623;53.986;11.676;2023-05-07T00:26:39;17.77;;;12.70;;
15218;SDS011;15623;53.986;11.676;2023-05-07T00:29:06;17.97;;;13.20;;
15218;SDS011;15623;53.986;11.676;2023-05-07T00:31:35;18.43;;;13.33;;
15218;SDS011;15623;53.986;11.676;2023-05-07T00:34:04;15.13;;;12.47;;
15218;SDS011;15623;53.986;11.676;2023-05-07T00:36:35;17.37;;;13.13;;
15218;SDS011;15623;53.986;11.676;2023-05-07T00:39:04;20.10;;;13.40;;
15218;SDS011;15623;53.986;11.676;2023-05-07T00:41:32;14.37;;;11.93;;
15218;SDS011;15623;53.986;11.676;2023-05-07T00:44:01;15.17;;;12.27;;
15218;SDS011;15623;53.986;11.676;2023-05-07T00:46:29;12.90;;;11.57;;
15218;SDS011;15623;53.986;11.676;2023-05-07T00:48:58;16.93;;;13.07;;
15218;SDS011;15623;53.986;11.676;2023-05-07T00:51:27;15.03;;;12.17;;
15218;SDS011;15623;53.986;11.676;2023-05-07T00:54:01;15.37;;;11.70;;
15218;SDS011;15623;53.986;11.676;2023-05-07T00:56:34;13.17;;;11.60;;
15218;SDS011;15623;53.986;11.676;2023-05-07T00:59:03;13.23;;;11.87;;
15218;SDS011;15623;53.986;11.676;2023-05-07T01:01:30;18.07;;;12.03;;
15218;SDS011;15623;53.986;11.676;2023-05-07T01:03:58;16.03;;;12.27;;
15218;SDS011;15623;53.986;11.676;2023-05-07T01:09:11;16.00;;;11.43;;
15218;SDS011;15623;53.986;11.676;2023-05-07T01:11:42;14.00;;;12.27;;
15218;SDS011;15623;53.986;11.676;2023-05-07T01:14:12;16.17;;;11.57;;
15218;SDS011;15623;53.986;11.676;2023-05-07T01:16:40;15.20;;;11.40;;
15218;SDS011;15623;53.986;11.676;2023-05-07T01:19:11;12.97;;;11.77;;
15218;SDS011;15623;53.986;11.676;2023-05-07T01:21:42;15.30;;;11.93;;
15218;SDS011;15623;53.986;11.676;2023-05-07T01:24:29;12.90;;;11.57;;
15218;SDS011;15623;53.986;11.676;2023-05-07T01:26:59;15.87;;;11.50;;
15218;SDS011;15623;53.986;11.676;2023-05-07T01:29:38;12.87;;;11.30;;
15218;SDS011;15623;53.986;11.676;2023-05-07T01:32:07;14.87;;;12.00;;
15218;SDS011;15623;53.986;11.676;2023-05-07T01:34:35;13.80;;;11.67;;
15218;SDS011;15623;53.986;11.676;2023-05-07T01:37:03;12.47;;;11.20;;
15218;SDS011;15623;53.986;11.676;2023-05-07T01:39:37;16.13;;;11.77;;
15218;SDS011;15623;53.986;11.676;2023-05-07T01:42:09;13.97;;;12.67;;
15218;SDS011;15623;53.986;11.676;2023-05-07T01:44:39;13.30;;;12.00;;
15218;SDS011;15623;53.986;11.676;2023-05-07T01:47:12;15.80;;;13.03;;
15218;SDS011;15623;53.986;11.676;2023-05-07T01:49:41;14.03;;;12.50;;
15218;SDS011;15623;53.986;11.676;2023-05-07T01:52:16;13.37;;;12.07;;
15218;SDS011;15623;53.986;11.676;2023-05-07T01:54:46;13.83;;;12.53;;
15218;SDS011;15623;53.986;11.676;2023-05-07T01:57:14;14.17;;;12.53;;
15218;SDS011;15623;53.986;11.676;2023-05-07T01:59:42;13.80;;;12.30;;
15218;SDS011;15623;53.986;11.676;2023-05-07T02:02:10;14.30;;;12.87;;
15218;SDS011;15623;53.986;11.676;2023-05-07T02:04:37;15.37;;;12.43;;
15218;SDS011;15623;53.986;11.676;2023-05-07T02:07:04;14.83;;;13.03;;
15218;SDS011;15623;53.986;11.676;2023-05-07T02:09:32;17.43;;;13.20;;
15218;SDS011;15623;53.986;11.676;2023-05-07T02:14:39;13.10;;;11.90;;
15218;SDS011;15623;53.986;11.676;2023-05-07T02:17:13;14.80;;;12.57;;
15218;SDS011;15623;53.986;11.676;2023-05-07T02:19:40;13.13;;;11.83;;
15218;SDS011;15623;53.986;11.676;2023-05-07T02:22:09;15.40;;;12.17;;
15218;SDS011;15623;53.986;11.676;2023-05-07T02:24:38;13.30;;;12.00;;
15218;SDS011;15623;53.986;11.676;2023-05-07T02:27:13;13.30;;;12.00;;
15218;SDS011;15623;53.986;11.676;2023-05-07T02:29:51;13.53;;;12.20;;
15218;SDS011;15623;53.986;11.676;2023-05-07T02:32:36;13.50;;;12.30;;
15218;SDS011;15623;53.986;11.676;2023-05-07T02:35:03;14.10;;;12.70;;
15218;SDS011;15623;53.986;11.676;2023-05-07T02:37:30;14.50;;;13.00;;
15218;SDS011;15623;53.986;11.676;2023-05-07T02:39:58;15.60;;;13.30;;
15218;SDS011;15623;53.986;11.676;2023-05-07T02:42:32;14.73;;;13.23;;
15218;SDS011;15623;53.986;11.676;2023-05-07T02:45:01;14.90;;;13.40;;
15218;SDS011;15623;53.986;11.676;2023-05-07T02:47:31;14.17;;;12.83;;
15218;SDS011;15623;53.986;11.676;2023-05-07T02:49:58;16.73;;;13.43;;
15218;SDS011;15623;53.986;11.676;2023-05-07T02:52:26;14.67;;;13.30;;
15218;SDS011;15623;53.986;11.676;2023-05-07T02:54:55;15.37;;;13.70;;
15218;SDS011;15623;53.986;11.676;2023-05-07T02:57:34;15.10;;;13.47;;
15218;SDS011;15623;53.986;11.676;2023-05-07T03:00:14;15.20;;;13.63;;
15218;SDS011;15623;53.986;11.676;2023-05-07T03:02:41;16.03;;;13.73;;
15218;SDS011;15623;53.986;11.676;2023-05-07T03:05:14;15.00;;;13.27;;
15218;SDS011;15623;53.986;11.676;2023-05-07T03:07:51;15.40;;;13.83;;
15218;SDS011;15623;53.986;11.676;2023-05-07T03:10:26;14.83;;;13.20;;
15218;SDS011;15623;53.986;11.676;2023-05-07T03:12:54;14.77;;;13.30;;
15218;SDS011;15623;53.986;11.676;2023-05-07T03:15:24;14.17;;;12.83;;
15218;SDS011;15623;53.986;11.676;2023-05-07T03:17:53;14.03;;;12.47;;
15218;SDS011;15623;53.986;11.676;2023-05-07T03:23:08;13.97;;;12.67;;
15218;SDS011;15623;53.986;11.676;2023-05-07T03:28:16;13.23;;;11.93;;
15218;SDS011;15623;53.986;11.676;2023-05-07T03:30:45;13.83;;;12.53;;
15218;SDS011;15623;53.986;11.676;2023-05-07T03:33:24;14.23;;;12.80;;
15218;SDS011;15623;53.986;11.676;2023-05-07T03:35:52;13.97;;;12.57;;
15218;SDS011;15623;53.986;11.676;2023-05-07T03:38:29;13.80;;;12.20;;
15218;SDS011;15623;53.986;11.676;2023-05-07T03:41:07;15.87;;;12.50;;
15218;SDS011;15623;53.986;11.676;2023-05-07T03:43:47;15.80;;;12.50;;
15218;SDS011;15623;53.986;11.676;2023-05-07T03:46:21;15.13;;;13.50;;
15218;SDS011;15623;53.986;11.676;2023-05-07T03:51:47;15.23;;;13.53;;
15218;SDS011;15623;53.986;11.676;2023-05-07T03:54:15;15.20;;;13.60;;
15218;SDS011;15623;53.986;11.676;2023-05-07T03:56:42;14.63;;;13.03;;
15218;SDS011;15623;53.986;11.676;2023-05-07T03:59:09;14.93;;;13.43;;
15218;SDS011;15623;53.986;11.676;2023-05-07T04:01:39;14.93;;;13.33;;
15218;SDS011;15623;53.986;11.676;2023-05-07T04:04:14;14.73;;;13.10;;
15218;SDS011;15623;53.986;11.676;2023-05-07T04:09:28;15.23;;;12.73;;
15218;SDS011;15623;53.986;11.676;2023-05-07T04:11:55;14.03;;;12.33;;
15218;SDS011;15623;53.986;11.676;2023-05-07T04:14:24;13.53;;;12.13;;
15218;SDS011;15623;53.986;11.676;2023-05-07T04:16:57;14.30;;;12.43;;
15218;SDS011;15623;53.986;11.676;2023-05-07T04:19:24;13.60;;;12.27;;
15218;SDS011;15623;53.986;11.676;2023-05-07T04:21:53;14.63;;;12.23;;
15218;SDS011;15623;53.986;11.676;2023-05-07T04:24:21;15.87;;;12.73;;
15218;SDS011;15623;53.986;11.676;2023-05-07T04:26:56;14.97;;;12.67;;
15218;SDS011;15623;53.986;11.676;2023-05-07T04:29:43;14.80;;;11.90;;
15218;SDS011;15623;53.986;11.676;2023-05-07T04:32:14;13.83;;;12.63;;
15218;SDS011;15623;53.986;11.676;2023-05-07T04:34:43;13.27;;;12.00;;
15218;SDS011;15623;53.986;11.676;2023-05-07T04:37:13;14.43;;;12.93;;
15218;SDS011;15623;53.986;11.676;2023-05-07T04:39:40;16.67;;;12.63;;
15218;SDS011;15623;53.986;11.676;2023-05-07T04:44:43;14.20;;;12.87;;
15218;SDS011;15623;53.986;11.676;2023-05-07T04:47:19;14.87;;;13.47;;
15218;SDS011;15623;53.986;11.676;2023-05-07T04:49:55;15.83;;;14.23;;
15218;SDS011;15623;53.986;11.676;2023-05-07T04:52:24;14.90;;;13.30;;
15218;SDS011;15623;53.986;11.676;2023-05-07T04:55:01;14.43;;;13.03;;
15218;SDS011;15623;53.986;11.676;2023-05-07T04:57:30;15.37;;;13.77;;
15218;SDS011;15623;53.986;11.676;2023-05-07T04:59:58;14.30;;;12.60;;
15218;SDS011;15623;53.986;11.676;2023-05-07T05:02:27;13.00;;;11.70;;
15218;SDS011;15623;53.986;11.676;2023-05-07T05:04:55;12.10;;;10.90;;
15218;SDS011;15623;53.986;11.676;2023-05-07T05:07:24;9.40;;;8.70;;
15218;SDS011;15623;53.986;11.676;2023-05-07T05:09:51;10.17;;;9.27;;
15218;SDS011;15623;53.986;11.676;2023-05-07T05:12:19;8.80;;;8.17;;
15218;SDS011;15623;53.986;11.676;2023-05-07T05:14:47;8.67;;;7.93;;
15218;SDS011;15623;53.986;11.676;2023-05-07T05:17:39;8.47;;;7.80;;
15218;SDS011;15623;53.986;11.676;2023-05-07T05:23:00;11.53;;;8.73;;
15218;SDS011;15623;53.986;11.676;2023-05-07T05:25:28;8.63;;;7.90;;
15218;SDS011;15623;53.986;11.676;2023-05-07T05:27:59;8.80;;;8.00;;
15218;SDS011;15623;53.986;11.676;2023-05-07T05:30:28;8.40;;;7.60;;
15218;SDS011;15623;53.986;11.676;2023-05-07T05:33:03;7.83;;;7.20;;
15218;SDS011;15623;53.986;11.676;2023-05-07T05:35:47;8.17;;;7.37;;
15218;SDS011;15623;53.986;11.676;2023-05-07T05:41:07;8.23;;;7.53;;
15218;SDS011;15623;53.986;11.676;2023-05-07T05:43:48;8.47;;;7.67;;
15218;SDS011;15623;53.986;11.676;2023-05-07T05:46:19;8.23;;;7.50;;
15218;SDS011;15623;53.986;11.676;2023-05-07T05:48:48;9.20;;;8.10;;
15218;SDS011;15623;53.986;11.676;2023-05-07T05:51:22;8.03;;;7.33;;
15218;SDS011;15623;53.986;11.676;2023-05-07T05:53:50;8.97;;;8.20;;
15218;SDS011;15623;53.986;11.676;2023-05-07T05:56:43;8.80;;;7.90;;
15218;SDS011;15623;53.986;11.676;2023-05-07T05:59:34;9.03;;;8.13;;
15218;SDS011;15623;53.986;11.676;2023-05-07T06:02:04;9.67;;;8.73;;
15218;SDS011;15623;53.986;11.676;2023-05-07T06:04:58;10.73;;;9.83;;
15218;SDS011;15623;53.986;11.676;2023-05-07T06:07:26;9.80;;;9.00;;
15218;SDS011;15623;53.986;11.676;2023-05-07T06:10:22;10.07;;;9.07;;
15218;SDS011;15623;53.986;11.676;2023-05-07T06:13:10;9.80;;;9.00;;
15218;SDS011;15623;53.986;11.676;2023-05-07T06:15:52;9.93;;;9.03;;
15218;SDS011;15623;53.986;11.676;2023-05-07T06:18:40;9.23;;;8.43;;
15218;SDS011;15623;53.986;11.676;2023-05-07T06:21:11;8.27;;;7.67;;
15218;SDS011;15623;53.986;11.676;2023-05-07T06:23:41;8.43;;;7.83;;
15218;SDS011;15623;53.986;11.676;2023-05-07T06:26:34;7.70;;;7.10;;
15218;SDS011;15623;53.986;11.676;2023-05-07T06:29:17;8.40;;;7.60;;
15218;SDS011;15623;53.986;11.676;2023-05-07T06:35:04;8.35;;;7.75;;
15218;SDS011;15623;53.986;11.676;2023-05-07T06:40:16;8.35;;;6.75;;
15218;SDS011;15623;53.986;11.676;2023-05-07T06:42:54;7.85;;;7.25;;
15218;SDS011;15623;53.986;11.676;2023-05-07T06:48:15;7.28;;;6.57;;
15218;SDS011;15623;53.986;11.676;2023-05-07T06:50:43;7.53;;;6.90;;
15218;SDS011;15623;53.986;11.676;2023-05-07T06:53:12;6.57;;;6.10;;
15218;SDS011;15623;53.986;11.676;2023-05-07T06:55:51;7.07;;;6.47;;
15218;SDS011;15623;53.986;11.676;2023-05-07T06:58:27;6.43;;;6.00;;
15218;SDS011;15623;53.986;11.676;2023-05-07T07:00:54;6.20;;;5.70;;
15218;SDS011;15623;53.986;11.676;2023-05-07T07:03:22;6.82;;;6.22;;
15218;SDS011;15623;53.986;11.676;2023-05-07T07:05:51;6.57;;;5.97;;
15218;SDS011;15623;53.986;11.676;2023-05-07T07:08:19;7.25;;;5.13;;
15218;SDS011;15623;53.986;11.676;2023-05-07T07:10:48;6.55;;;6.00;;
15218;SDS011;15623;53.986;11.676;2023-05-07T07:13:19;5.63;;;5.13;;
15218;SDS011;15623;53.986;11.676;2023-05-07T07:15:46;5.35;;;5.00;;
15218;SDS011;15623;53.986;11.676;2023-05-07T07:18:14;5.43;;;5.13;;
15218;SDS011;15623;53.986;11.676;2023-05-07T07:20:42;5.82;;;5.22;;
15218;SDS011;15623;53.986;11.676;2023-05-07T07:23:39;5.50;;;5.00;;
15218;SDS011;15623;53.986;11.676;2023-05-07T07:26:14;5.35;;;4.95;;
15218;SDS011;15623;53.986;11.676;2023-05-07T07:28:43;5.18;;;4.78;;
15218;SDS011;15623;53.986;11.676;2023-05-07T07:31:11;6.22;;;5.05;;
15218;SDS011;15623;53.986;11.676;2023-05-07T07:33:39;5.43;;;4.90;;
15218;SDS011;15623;53.986;11.676;2023-05-07T07:36:07;5.85;;;5.25;;
15218;SDS011;15623;53.986;11.676;2023-05-07T07:38:35;5.22;;;4.72;;
15218;SDS011;15623;53.986;11.676;2023-05-07T07:41:05;5.70;;;5.20;;
15218;SDS011;15623;53.986;11.676;2023-05-07T07:43:34;5.05;;;4.65;;
15218;SDS011;15623;53.986;11.676;2023-05-07T07:46:03;4.68;;;4.35;;
15218;SDS011;15623;53.986;11.676;2023-05-07T07:48:42;4.68;;;4.38;;
15218;SDS011;15623;53.986;11.676;2023-05-07T07:53:59;5.20;;;4.80;;
15218;SDS011;15623;53.986;11.676;2023-05-07T07:56:34;4.50;;;4.20;;
15218;SDS011;15623;53.986;11.676;2023-05-07T07:59:03;4.30;;;3.67;;
15218;SDS011;15623;53.986;11.676;2023-05-07T08:01:43;4.30;;;3.90;;
15218;SDS011;15623;53.986;11.676;2023-05-07T08:04:22;4.18;;;3.83;;
15218;SDS011;15623;53.986;11.676;2023-05-07T08:07:05;4.10;;;3.80;;
15218;SDS011;15623;53.986;11.676;2023-05-07T08:09:33;4.07;;;3.78;;
15218;SDS011;15623;53.986;11.676;2023-05-07T08:12:16;3.88;;;3.53;;
15218;SDS011;15623;53.986;11.676;2023-05-07T08:14:46;3.90;;;3.70;;
15218;SDS011;15623;53.986;11.676;2023-05-07T08:17:15;3.53;;;3.22;;
15218;SDS011;15623;53.986;11.676;2023-05-07T08:19:43;2.92;;;2.72;;
15218;SDS011;15623;53.986;11.676;2023-05-07T08:22:10;3.67;;;3.38;;
15218;SDS011;15623;53.986;11.676;2023-05-07T08:24:43;3.15;;;2.95;;
15218;SDS011;15623;53.986;11.676;2023-05-07T08:27:23;3.25;;;2.95;;
15218;SDS011;15623;53.986;11.676;2023-05-07T08:29:52;3.30;;;3.10;;
15218;SDS011;15623;53.986;11.676;2023-05-07T08:32:22;3.30;;;3.10;;
15218;SDS011;15623;53.986;11.676;2023-05-07T08:34:51;3.03;;;2.83;;
15218;SDS011;15623;53.986;11.676;2023-05-07T08:37:34;3.33;;;2.70;;
15218;SDS011;15623;53.986;11.676;2023-05-07T08:40:04;3.10;;;2.90;;
15218;SDS011;15623;53.986;11.676;2023-05-07T08:42:39;3.05;;;2.85;;
15218;SDS011;15623;53.986;11.676;2023-05-07T08:45:10;3.33;;;3.03;;
15218;SDS011;15623;53.986;11.676;2023-05-07T08:47:46;3.40;;;2.90;;
15218;SDS011;15623;53.986;11.676;2023-05-07T08:50:20;4.30;;;2.58;;
15218;SDS011;15623;53.986;11.676;2023-05-07T08:52:58;2.85;;;2.65;;
15218;SDS011;15623;53.986;11.676;2023-05-07T08:55:26;3.13;;;2.92;;
15218;SDS011;15623;53.986;11.676;2023-05-07T08:58:00;2.90;;;2.70;;
15218;SDS011;15623;53.986;11.676;2023-05-07T09:00:28;3.00;;;2.70;;
15218;SDS011;15623;53.986;11.676;2023-05-07T09:02:58;2.85;;;2.65;;
15218;SDS011;15623;53.986;11.676;2023-05-07T09:05:26;2.88;;;2.67;;
15218;SDS011;15623;53.986;11.676;2023-05-07T09:08:01;3.08;;;2.70;;
15218;SDS011;15623;53.986;11.676;2023-05-07T09:10:37;2.90;;;2.70;;
15218;SDS011;15623;53.986;11.676;2023-05-07T09:13:09;3.38;;;3.10;;
15218;SDS011;15623;53.986;11.676;2023-05-07T09:15:41;3.42;;;3.20;;
15218;SDS011;15623;53.986;11.676;2023-05-07T09:18:09;3.20;;;3.00;;
15218;SDS011;15623;53.986;11.676;2023-05-07T09:23:17;3.30;;;2.80;;
15218;SDS011;15623;53.986;11.676;2023-05-07T09:25:44;3.13;;;2.92;;
15218;SDS011;15623;53.986;11.676;2023-05-07T09:28:15;3.33;;;3.13;;
15218;SDS011;15623;53.986;11.676;2023-05-07T09:30:44;3.17;;;2.97;;
15218;SDS011;15623;53.986;11.676;2023-05-07T09:33:12;2.80;;;2.60;;
15218;SDS011;15623;53.986;11.676;2023-05-07T09:35:50;2.97;;;2.78;;
15218;SDS011;15623;53.986;11.676;2023-05-07T09:38:23;3.10;;;2.75;;
15218;SDS011;15623;53.986;11.676;2023-05-07T09:41:05;3.10;;;2.90;;
15218;SDS011;15623;53.986;11.676;2023-05-07T09:43:38;3.03;;;2.83;;
15218;SDS011;15623;53.986;11.676;2023-05-07T09:46:10;3.00;;;2.70;;
15218;SDS011;15623;53.986;11.676;2023-05-07T09:48:53;2.67;;;2.58;;
15218;SDS011;15623;53.986;11.676;2023-05-07T09:51:28;2.80;;;2.60;;
15218;SDS011;15623;53.986;11.676;2023-05-07T09:53:56;3.03;;;2.78;;
15218;SDS011;15623;53.986;11.676;2023-05-07T09:56:25;2.60;;;2.40;;
15218;SDS011;15623;53.986;11.676;2023-05-07T09:58:57;3.10;;;2.80;;
15218;SDS011;15623;53.986;11.676;2023-05-07T10:01:27;2.75;;;2.55;;
15218;SDS011;15623;53.986;11.676;2023-05-07T10:03:54;3.38;;;2.30;;
15218;SDS011;15623;53.986;11.676;2023-05-07T10:06:26;3.00;;;2.50;;
15218;SDS011;15623;53.986;11.676;2023-05-07T10:11:26;3.42;;;2.70;;
15218;SDS011;15623;53.986;11.676;2023-05-07T10:13:55;4.95;;;4.55;;
15218;SDS011;15623;53.986;11.676;2023-05-07T10:16:32;3.05;;;2.85;;
15218;SDS011;15623;53.986;11.676;2023-05-07T10:21:33;2.55;;;2.35;;
15218;SDS011;15623;53.986;11.676;2023-05-07T10:24:09;6.10;;;5.65;;
15218;SDS011;15623;53.986;11.676;2023-05-07T10:26:39;2.85;;;2.60;;
15218;SDS011;15623;53.986;11.676;2023-05-07T10:29:15;8.13;;;7.22;;
15218;SDS011;15623;53.986;11.676;2023-05-07T10:31:53;2.33;;;2.22;;
15218;SDS011;15623;53.986;11.676;2023-05-07T10:34:23;2.40;;;2.20;;
15218;SDS011;15623;53.986;11.676;2023-05-07T10:39:31;3.80;;;3.50;;
15218;SDS011;15623;53.986;11.676;2023-05-07T10:42:09;2.63;;;2.42;;
15218;SDS011;15623;53.986;11.676;2023-05-07T10:47:15;2.20;;;2.10;;
15218;SDS011;15623;53.986;11.676;2023-05-07T10:52:30;2.88;;;2.67;;
15218;SDS011;15623;53.986;11.676;2023-05-07T10:57:56;2.50;;;2.40;;
15218;SDS011;15623;53.986;11.676;2023-05-07T11:03:14;2.63;;;2.42;;
15218;SDS011;15623;53.986;11.676;2023-05-07T11:05:41;2.90;;;2.70;;
15218;SDS011;15623;53.986;11.676;2023-05-07T11:08:27;2.78;;;2.67;;
15218;SDS011;15623;53.986;11.676;2023-05-07T11:11:19;2.67;;;2.47;;
15218;SDS011;15623;53.986;11.676;2023-05-07T11:13:49;2.60;;;2.40;;
15218;SDS011;15623;53.986;11.676;2023-05-07T11:16:17;2.30;;;2.20;;
15218;SDS011;15623;53.986;11.676;2023-05-07T11:18:51;2.92;;;2.72;;
15218;SDS011;15623;53.986;11.676;2023-05-07T11:21:32;3.45;;;2.58;;
15218;SDS011;15623;53.986;11.676;2023-05-07T11:24:01;2.80;;;2.60;;
15218;SDS011;15623;53.986;11.676;2023-05-07T11:29:00;2.88;;;2.67;;
15218;SDS011;15623;53.986;11.676;2023-05-07T11:31:30;6.03;;;2.78;;
15218;SDS011;15623;53.986;11.676;2023-05-07T11:34:00;2.92;;;2.70;;
15218;SDS011;15623;53.986;11.676;2023-05-07T11:36:31;5.30;;;2.95;;
15218;SDS011;15623;53.986;11.676;2023-05-07T11:38:59;3.10;;;2.90;;
15218;SDS011;15623;53.986;11.676;2023-05-07T11:41:33;3.70;;;2.90;;
15218;SDS011;15623;53.986;11.676;2023-05-07T11:44:03;3.05;;;2.75;;
15218;SDS011;15623;53.986;11.676;2023-05-07T11:46:32;3.78;;;2.60;;
15218;SDS011;15623;53.986;11.676;2023-05-07T11:49:01;3.00;;;2.80;;
15218;SDS011;15623;53.986;11.676;2023-05-07T11:51:29;4.63;;;2.90;;
15218;SDS011;15623;53.986;11.676;2023-05-07T11:53:57;2.97;;;2.70;;
15218;SDS011;15623;53.986;11.676;2023-05-07T11:56:28;3.17;;;2.40;;
15218;SDS011;15623;53.986;11.676;2023-05-07T11:59:01;3.08;;;2.88;;
15218;SDS011;15623;53.986;11.676;2023-05-07T12:01:45;3.50;;;2.38;;
15218;SDS011;15623;53.986;11.676;2023-05-07T12:04:20;2.92;;;2.67;;
15218;SDS011;15623;53.986;11.676;2023-05-07T12:06:53;2.67;;;2.47;;
15218;SDS011;15623;53.986;11.676;2023-05-07T12:09:27;3.10;;;2.80;;
15218;SDS011;15623;53.986;11.676;2023-05-07T12:11:55;2.85;;;2.65;;
15218;SDS011;15623;53.986;11.676;2023-05-07T12:14:26;2.70;;;2.50;;
15218;SDS011;15623;53.986;11.676;2023-05-07T12:16:54;4.53;;;3.05;;
15218;SDS011;15623;53.986;11.676;2023-05-07T12:19:35;8.38;;;2.53;;
15218;SDS011;15623;53.986;11.676;2023-05-07T12:22:03;6.40;;;5.90;;
15218;SDS011;15623;53.986;11.676;2023-05-07T12:24:42;3.10;;;2.90;;
15218;SDS011;15623;53.986;11.676;2023-05-07T12:27:11;5.40;;;2.63;;
15218;SDS011;15623;53.986;11.676;2023-05-07T12:29:41;3.65;;;3.00;;
15218;SDS011;15623;53.986;11.676;2023-05-07T12:32:12;3.45;;;2.90;;
15218;SDS011;15623;53.986;11.676;2023-05-07T12:34:50;4.13;;;3.67;;
15218;SDS011;15623;53.986;11.676;2023-05-07T12:40:09;3.30;;;3.10;;
15218;SDS011;15623;53.986;11.676;2023-05-07T12:42:39;3.17;;;2.97;;
15218;SDS011;15623;53.986;11.676;2023-05-07T12:45:15;5.40;;;2.70;;
15218;SDS011;15623;53.986;11.676;2023-05-07T12:47:44;3.55;;;3.25;;
15218;SDS011;15623;53.986;11.676;2023-05-07T12:50:20;4.65;;;2.88;;
15218;SDS011;15623;53.986;11.676;2023-05-07T12:52:48;3.38;;;3.17;;
15218;SDS011;15623;53.986;11.676;2023-05-07T12:55:16;3.45;;;3.00;;
15218;SDS011;15623;53.986;11.676;2023-05-07T12:57:45;6.03;;;3.53;;
15218;SDS011;15623;53.986;11.676;2023-05-07T13:00:15;3.35;;;3.05;;
15218;SDS011;15623;53.986;11.676;2023-05-07T13:02:58;4.45;;;3.00;;
15218;SDS011;15623;53.986;11.676;2023-05-07T13:05:32;3.70;;;3.40;;
15218;SDS011;15623;53.986;11.676;2023-05-07T13:08:01;3.90;;;3.03;;
15218;SDS011;15623;53.986;11.676;2023-05-07T13:10:30;3.03;;;2.83;;
15218;SDS011;15623;53.986;11.676;2023-05-07T13:13:00;2.90;;;2.60;;
15218;SDS011;15623;53.986;11.676;2023-05-07T13:15:28;3.08;;;2.88;;
15218;SDS011;15623;53.986;11.676;2023-05-07T13:21:07;3.50;;;2.83;;
15218;SDS011;15623;53.986;11.676;2023-05-07T13:23:36;3.15;;;2.83;;
15218;SDS011;15623;53.986;11.676;2023-05-07T13:26:05;3.17;;;2.88;;
15218;SDS011;15623;53.986;11.676;2023-05-07T13:28:41;3.40;;;3.20;;
15218;SDS011;15623;53.986;11.676;2023-05-07T13:31:08;3.30;;;3.00;;
15218;SDS011;15623;53.986;11.676;2023-05-07T13:33:37;4.00;;;3.30;;
15218;SDS011;15623;53.986;11.676;2023-05-07T13:36:11;3.97;;;3.30;;
15218;SDS011;15623;53.986;11.676;2023-05-07T13:38:40;3.92;;;2.80;;
15218;SDS011;15623;53.986;11.676;2023-05-07T13:41:16;3.35;;;3.05;;
15218;SDS011;15623;53.986;11.676;2023-05-07T13:43:49;3.47;;;2.95;;
15218;SDS011;15623;53.986;11.676;2023-05-07T13:48:48;4.35;;;3.08;;
15218;SDS011;15623;53.986;11.676;2023-05-07T13:51:21;4.57;;;2.78;;
15218;SDS011;15623;53.986;11.676;2023-05-07T13:53:50;3.40;;;3.10;;
15218;SDS011;15623;53.986;11.676;2023-05-07T13:56:17;4.05;;;3.20;;
15218;SDS011;15623;53.986;11.676;2023-05-07T13:58:47;3.72;;;3.30;;
15218;SDS011;15623;53.986;11.676;2023-05-07T14:01:15;3.33;;;3.13;;
15218;SDS011;15623;53.986;11.676;2023-05-07T14:03:43;4.38;;;3.20;;
15218;SDS011;15623;53.986;11.676;2023-05-07T14:06:10;3.30;;;3.10;;
15218;SDS011;15623;53.986;11.676;2023-05-07T14:11:28;6.18;;;3.00;;
15218;SDS011;15623;53.986;11.676;2023-05-07T14:13:56;2.90;;;2.70;;
15218;SDS011;15623;53.986;11.676;2023-05-07T14:16:28;7.57;;;3.45;;
15218;SDS011;15623;53.986;11.676;2023-05-07T14:18:56;3.50;;;3.20;;
15218;SDS011;15623;53.986;11.676;2023-05-07T14:21:23;3.20;;;2.92;;
15218;SDS011;15623;53.986;11.676;2023-05-07T14:23:51;3.20;;;2.90;;
15218;SDS011;15623;53.986;11.676;2023-05-07T14:26:24;4.57;;;3.30;;
15218;SDS011;15623;53.986;11.676;2023-05-07T14:28:58;3.17;;;2.90;;
15218;SDS011;15623;53.986;11.676;2023-05-07T14:31:26;3.47;;;3.28;;
15218;SDS011;15623;53.986;11.676;2023-05-07T14:34:00;3.28;;;3.00;;
15218;SDS011;15623;53.986;11.676;2023-05-07T14:36:29;3.03;;;2.83;;
15218;SDS011;15623;53.986;11.676;2023-05-07T14:38:57;4.55;;;2.80;;
15218;SDS011;15623;53.986;11.676;2023-05-07T14:41:25;3.13;;;2.70;;
15218;SDS011;15623;53.986;11.676;2023-05-07T14:43:52;3.03;;;2.72;;
15218;SDS011;15623;53.986;11.676;2023-05-07T14:46:21;4.38;;;3.15;;
15218;SDS011;15623;53.986;11.676;2023-05-07T14:48:49;3.25;;;3.05;;
15218;SDS011;15623;53.986;11.676;2023-05-07T14:51:17;5.03;;;3.45;;
15218;SDS011;15623;53.986;11.676;2023-05-07T14:53:45;4.30;;;3.40;;
15218;SDS011;15623;53.986;11.676;2023-05-07T14:56:12;3.55;;;3.25;;
15218;SDS011;15623;53.986;11.676;2023-05-07T14:58:43;4.65;;;3.20;;
15218;SDS011;15623;53.986;11.676;2023-05-07T15:01:15;3.97;;;3.00;;
15218;SDS011;15623;53.986;11.676;2023-05-07T15:03:55;3.20;;;2.97;;
15218;SDS011;15623;53.986;11.676;2023-05-07T15:06:24;2.75;;;2.63;;
15218;SDS011;15623;53.986;11.676;2023-05-07T15:08:54;4.18;;;2.95;;
15218;SDS011;15623;53.986;11.676;2023-05-07T15:11:21;3.20;;;2.90;;
15218;SDS011;15623;53.986;11.676;2023-05-07T15:13:49;3.63;;;2.95;;
15218;SDS011;15623;53.986;11.676;2023-05-07T15:16:20;3.28;;;3.08;;
15218;SDS011;15623;53.986;11.676;2023-05-07T15:18:57;3.15;;;2.95;;
15218;SDS011;15623;53.986;11.676;2023-05-07T15:21:25;3.25;;;2.78;;
15218;SDS011;15623;53.986;11.676;2023-05-07T15:23:56;2.80;;;2.58;;
15218;SDS011;15623;53.986;11.676;2023-05-07T15:26:23;2.75;;;2.58;;
15218;SDS011;15623;53.986;11.676;2023-05-07T15:28:50;7.35;;;2.90;;
15218;SDS011;15623;53.986;11.676;2023-05-07T15:31:20;2.95;;;2.75;;
15218;SDS011;15623;53.986;11.676;2023-05-07T15:34:07;4.20;;;2.67;;
15218;SDS011;15623;53.986;11.676;2023-05-07T15:36:41;3.38;;;2.78;;
15218;SDS011;15623;53.986;11.676;2023-05-07T15:39:16;5.20;;;2.92;;
15218;SDS011;15623;53.986;11.676;2023-05-07T15:41:43;2.88;;;2.75;;
15218;SDS011;15623;53.986;11.676;2023-05-07T15:44:18;4.07;;;2.50;;
15218;SDS011;15623;53.986;11.676;2023-05-07T15:46:46;3.00;;;2.80;;
15218;SDS011;15623;53.986;11.676;2023-05-07T15:49:20;3.10;;;2.72;;
15218;SDS011;15623;53.986;11.676;2023-05-07T15:51:48;2.90;;;2.60;;
15218;SDS011;15623;53.986;11.676;2023-05-07T15:54:18;3.00;;;2.80;;
15218;SDS011;15623;53.986;11.676;2023-05-07T15:56:51;6.60;;;2.90;;
15218;SDS011;15623;53.986;11.676;2023-05-07T15:59:28;3.40;;;3.05;;
15218;SDS011;15623;53.986;11.676;2023-05-07T16:02:03;8.27;;;3.65;;
15218;SDS011;15623;53.986;11.676;2023-05-07T16:04:36;8.50;;;7.90;;
15218;SDS011;15623;53.986;11.676;2023-05-07T16:07:03;6.60;;;5.15;;